createdAt,value
2023-10-03T00:00:12.777Z,99024.09
2023-10-03T00:03:21.544Z,99015.59
2023-10-03T00:06:27.178Z,99021.50
2023-10-03T00:09:33.888Z,99018.53
2023-10-03T00:12:39.205Z,99014.09
2023-10-03T00:15:45.994Z,99022.28
2023-10-03T00:18:51.393Z,99017.09
2023-10-03T00:21:57.182Z,99009.19
2023-10-03T00:25:03.116Z,99035.69
2023-10-03T00:28:13.614Z,99015.38
2023-10-03T00:31:19.201Z,99013.53
2023-10-03T00:34:25.277Z,99001.69
2023-10-03T00:37:31.109Z,99003.53
2023-10-03T00:40:40.048Z,99013.88
2023-10-03T00:43:45.656Z,99012.78
2023-10-03T00:46:52.541Z,99012.44
2023-10-03T00:49:58.168Z,99003.41
2023-10-03T00:53:05.448Z,98990.91
2023-10-03T00:56:12.570Z,99006.63
2023-10-03T00:59:18.530Z,99003.72
2023-10-03T01:02:27.016Z,99003.56
2023-10-03T01:05:32.936Z,99010.78
2023-10-03T01:08:38.951Z,99004.16
2023-10-03T01:11:46.872Z,99012.28
2023-10-03T01:14:36.364Z,99003.03
2023-10-03T01:17:42.571Z,98994.91
2023-10-03T01:20:48.042Z,98944.09
2023-10-03T01:23:57.041Z,98988.41
2023-10-03T01:27:02.896Z,98981.59
2023-10-03T01:30:08.451Z,98971.97
2023-10-03T01:33:17.209Z,98971.63
2023-10-03T01:36:23.280Z,98968.31
2023-10-03T01:39:29.185Z,98964.41
2023-10-03T01:42:35.141Z,98952.03
2023-10-03T01:45:44.013Z,98965.34
2023-10-03T01:48:49.560Z,98968.28
2023-10-03T01:51:55.345Z,98966.06
2023-10-03T01:55:04.310Z,98962.34
2023-10-03T01:57:55.027Z,98957.00
2023-10-03T02:01:01.135Z,98963.81
2023-10-03T02:04:06.481Z,98967.31
2023-10-03T02:07:12.164Z,98961.78
2023-10-03T02:10:17.798Z,98959.41
2023-10-03T02:13:24.480Z,98956.09
2023-10-03T02:16:12.167Z,98956.84
2023-10-03T02:18:58.289Z,98956.44
2023-10-03T02:21:44.129Z,98952.72
2023-10-03T02:24:31.822Z,98931.50
2023-10-03T02:27:18.570Z,98939.22
2023-10-03T02:30:13.397Z,98943.47
2023-10-03T02:33:09.687Z,98935.34
2023-10-03T02:35:56.002Z,98936.28
2023-10-03T02:39:02.302Z,98861.56
2023-10-03T02:42:09.975Z,98931.16
2023-10-03T02:45:17.688Z,98922.47
2023-10-03T02:48:36.559Z,98909.41
2023-10-03T02:51:43.054Z,98915.84
2023-10-03T02:54:50.277Z,98918.63
2023-10-03T02:57:58.051Z,98757.22
2023-10-03T03:01:22.226Z,98916.94
2023-10-03T03:04:27.845Z,98923.22
2023-10-03T03:07:35.302Z,98924.72
2023-10-03T03:10:41.025Z,98916.41
2023-10-03T03:13:49.566Z,98913.63
2023-10-03T03:16:54.792Z,98909.94
2023-10-03T03:20:02.431Z,98914.00
2023-10-03T03:23:09.522Z,98901.25
2023-10-03T03:26:15.513Z,98905.16
2023-10-03T03:29:21.209Z,98901.84
2023-10-03T03:32:27.202Z,98904.06
2023-10-03T03:35:35.775Z,98903.66
2023-10-03T03:38:41.420Z,98904.03
2023-10-03T03:41:46.733Z,98890.00
2023-10-03T03:44:52.721Z,98889.66
2023-10-03T03:47:40.846Z,98893.53
2023-10-03T03:50:46.920Z,98873.41
2023-10-03T03:53:53.652Z,98889.09
2023-10-03T03:56:59.390Z,98895.94
2023-10-03T04:00:05.933Z,98894.44
2023-10-03T04:03:21.355Z,98891.88
2023-10-03T04:06:26.791Z,98894.44
2023-10-03T04:09:32.544Z,98875.63
2023-10-03T04:12:39.165Z,98886.34
2023-10-03T04:15:45.241Z,98889.47
2023-10-03T04:18:52.082Z,98871.56
2023-10-03T04:21:59.509Z,98890.59
2023-10-03T04:25:05.075Z,98883.75
2023-10-03T04:28:15.412Z,98886.34
2023-10-03T04:31:20.941Z,98892.22
2023-10-03T04:34:27.041Z,98886.16
2023-10-03T04:37:32.784Z,98887.81
2023-10-03T04:40:42.881Z,98885.22
2023-10-03T04:43:49.442Z,98885.22
2023-10-03T04:46:58.481Z,98888.16
2023-10-03T04:50:04.091Z,98881.50
2023-10-03T04:53:11.137Z,98798.50
2023-10-03T04:56:16.977Z,98886.28
2023-10-03T04:59:23.044Z,98898.66
2023-10-03T05:02:32.019Z,98897.16
2023-10-03T05:05:42.671Z,98896.22
2023-10-03T05:08:48.357Z,98895.47
2023-10-03T05:11:54.296Z,98893.09
2023-10-03T05:15:03.569Z,98889.97
2023-10-03T05:18:10.437Z,98897.75
2023-10-03T05:21:17.739Z,98902.91
2023-10-03T05:24:05.117Z,98895.91
2023-10-03T05:27:12.106Z,98895.16
2023-10-03T05:30:18.438Z,98822.47
2023-10-03T05:33:28.827Z,98889.97
2023-10-03T05:36:39.030Z,98898.13
2023-10-03T05:39:27.839Z,98894.59
2023-10-03T05:42:34.187Z,98895.34
2023-10-03T05:45:21.158Z,98850.16
2023-10-03T05:48:07.733Z,98882.78
2023-10-03T05:50:56.880Z,98893.09
2023-10-03T05:53:45.815Z,98899.34
2023-10-03T05:56:32.090Z,98892.28
2023-10-03T05:59:17.546Z,98896.34
2023-10-03T06:02:26.907Z,98889.69
2023-10-03T06:05:33.162Z,98897.09
2023-10-03T06:08:38.809Z,98898.16
2023-10-03T06:11:46.314Z,98908.16
2023-10-03T06:14:51.783Z,98903.88
2023-10-03T06:17:59.092Z,98906.63
2023-10-03T06:21:05.259Z,98903.47
2023-10-03T06:23:52.281Z,98903.06
2023-10-03T06:26:58.323Z,98902.09
2023-10-03T06:30:06.988Z,98902.28
2023-10-03T06:33:13.264Z,98895.63
2023-10-03T06:36:19.186Z,98893.94
2023-10-03T06:39:25.120Z,98895.19
2023-10-03T06:42:10.618Z,98920.69
2023-10-03T06:44:56.341Z,98889.63
2023-10-03T06:48:05.400Z,98892.50
2023-10-03T06:51:12.153Z,98907.41
2023-10-03T06:54:17.719Z,98905.16
2023-10-03T06:57:24.125Z,98730.91
2023-10-03T07:00:32.041Z,98903.72
2023-10-03T07:03:37.725Z,98898.88
2023-10-03T07:06:44.280Z,98895.31
2023-10-03T07:09:52.862Z,98884.00
2023-10-03T07:12:58.632Z,98902.03
2023-10-03T07:16:05.250Z,98895.69
2023-10-03T07:19:12.031Z,98896.69
2023-10-03T07:22:18.327Z,98898.66
2023-10-03T07:25:25.619Z,98893.91
2023-10-03T07:28:33.304Z,98883.28
2023-10-03T07:31:39.066Z,98834.06
2023-10-03T07:34:45.096Z,98899.16
2023-10-03T07:37:51.037Z,98883.94
2023-10-03T07:40:57.126Z,98897.66
2023-10-03T07:44:02.939Z,98913.81
2023-10-03T07:47:08.538Z,98879.47
2023-10-03T07:50:14.014Z,98895.13
2023-10-03T07:53:21.384Z,98897.56
2023-10-03T07:56:35.930Z,98895.72
2023-10-03T07:59:41.311Z,98892.38
2023-10-03T08:02:49.880Z,98891.69
2023-10-03T08:05:59.378Z,98892.44
2023-10-03T08:09:05.354Z,98887.50
2023-10-03T08:11:53.404Z,98879.44
2023-10-03T08:15:00.582Z,98885.03
2023-10-03T08:18:09.149Z,98881.53
2023-10-03T08:21:17.812Z,98880.09
2023-10-03T08:24:23.999Z,98879.34
2023-10-03T08:27:35.641Z,98877.31
2023-10-03T08:30:47.601Z,98896.84
2023-10-03T08:33:55.957Z,98871.34
2023-10-03T08:37:02.116Z,98851.34
2023-10-03T08:40:08.845Z,98857.34
2023-10-03T08:43:16.099Z,98849.97
2023-10-03T08:46:23.088Z,98851.84
2023-10-03T08:49:31.348Z,98841.03
2023-10-03T08:52:37.078Z,98836.72
2023-10-03T08:55:43.134Z,98840.91
2023-10-03T08:58:49.230Z,98815.22
2023-10-03T09:01:58.596Z,98822.69
2023-10-03T09:05:04.494Z,98825.94
2023-10-03T09:08:16.660Z,98789.78
2023-10-03T09:11:21.818Z,98814.84
2023-10-03T09:14:29.738Z,98819.56
2023-10-03T09:17:42.480Z,98817.63
2023-10-03T09:20:50.563Z,98809.88
2023-10-03T09:24:23.047Z,98814.75
2023-10-03T09:27:41.162Z,98808.56
2023-10-03T09:30:47.617Z,98809.06
2023-10-03T09:33:57.669Z,98804.19
2023-10-03T09:37:05.895Z,98707.59
2023-10-03T09:40:11.889Z,98811.47
2023-10-03T09:43:21.013Z,98806.59
2023-10-03T09:46:26.995Z,98799.41
2023-10-03T09:49:33.221Z,98804.97
2023-10-03T09:52:39.292Z,98787.16
2023-10-03T09:55:49.242Z,98798.06
2023-10-03T09:58:57.156Z,98797.53
2023-10-03T10:02:03.429Z,98792.56
2023-10-03T10:05:11.253Z,98724.88
2023-10-03T10:08:19.931Z,98792.69
2023-10-03T10:11:28.908Z,98783.47
2023-10-03T10:14:36.393Z,98778.41
2023-10-03T10:17:43.600Z,98776.13
2023-10-03T10:20:54.849Z,98766.88
2023-10-03T10:24:42.254Z,98763.22
2023-10-03T10:27:50.523Z,98742.00
2023-10-03T10:30:58.619Z,98757.94
2023-10-03T10:34:05.384Z,98764.72
2023-10-03T10:37:23.807Z,98749.59
2023-10-03T10:40:13.681Z,98748.47
2023-10-03T10:43:28.135Z,98742.41
2023-10-03T10:46:53.227Z,98735.63
2023-10-03T10:50:14.040Z,98732.38
2023-10-03T10:53:27.860Z,98737.03
2023-10-03T10:56:16.406Z,98709.53
2023-10-03T10:59:29.445Z,98719.38
2023-10-03T11:02:48.691Z,98675.91
2023-10-03T11:06:06.056Z,98716.84
2023-10-03T11:09:11.870Z,98716.31
2023-10-03T11:12:19.230Z,98708.16
2023-10-03T11:15:32.277Z,98700.72
2023-10-03T11:18:49.650Z,98709.47
2023-10-03T11:21:36.705Z,98709.69
2023-10-03T11:24:44.775Z,98702.66
2023-10-03T11:27:52.211Z,98687.16
2023-10-03T11:30:59.320Z,98685.34
2023-10-03T11:34:07.339Z,98688.97
2023-10-03T11:37:12.615Z,98675.72
2023-10-03T11:40:30.541Z,98669.53
2023-10-03T11:43:43.068Z,98675.28
2023-10-03T11:47:01.087Z,98668.28
2023-10-03T11:50:08.059Z,98658.44
2023-10-03T11:53:15.731Z,98647.09
2023-10-03T11:56:24.569Z,98654.38
2023-10-03T11:59:31.025Z,98643.91
2023-10-03T12:02:36.528Z,98637.00
2023-10-03T12:05:44.093Z,98645.00
2023-10-03T12:08:49.996Z,98638.91
2023-10-03T12:11:57.451Z,98637.72
2023-10-03T12:15:06.449Z,98638.59
2023-10-03T12:18:16.396Z,98636.63
2023-10-03T12:21:23.387Z,98618.81
2023-10-03T12:24:29.147Z,98626.97
2023-10-03T12:27:34.839Z,98616.53
2023-10-03T12:30:40.678Z,98600.06
2023-10-03T12:33:45.908Z,98616.03
2023-10-03T12:36:51.766Z,98607.13
2023-10-03T12:39:57.471Z,98603.00
2023-10-03T12:43:10.638Z,98602.38
2023-10-03T12:46:19.617Z,98594.84
2023-10-03T12:49:25.976Z,98580.91
2023-10-03T12:52:32.114Z,98578.91
2023-10-03T12:55:38.284Z,98570.38
2023-10-03T12:58:43.684Z,98567.56
2023-10-03T13:01:49.277Z,98458.69
2023-10-03T13:04:55.014Z,98575.59
2023-10-03T13:08:01.112Z,98560.13
2023-10-03T13:11:07.421Z,98553.03
2023-10-03T13:14:13.464Z,98565.22
2023-10-03T13:17:20.172Z,98565.94
2023-10-03T13:20:27.571Z,98554.91
2023-10-03T13:23:33.368Z,98556.34
2023-10-03T13:26:38.876Z,98553.53
2023-10-03T13:29:44.518Z,98557.72
2023-10-03T13:32:50.306Z,98550.66
2023-10-03T13:35:55.678Z,98549.34
2023-10-03T13:39:01.471Z,98545.16
2023-10-03T13:42:07.525Z,98539.53
2023-10-03T13:44:58.256Z,98541.69
2023-10-03T13:48:05.110Z,98542.44
2023-10-03T13:51:10.807Z,98534.03
2023-10-03T13:54:18.221Z,98534.13
2023-10-03T13:57:24.421Z,98524.19
2023-10-03T14:00:33.841Z,98518.56
2023-10-03T14:03:40.806Z,98522.03
2023-10-03T14:06:47.270Z,98511.06
2023-10-03T14:09:53.113Z,98447.34
2023-10-03T14:12:58.682Z,98514.38
2023-10-03T14:16:04.242Z,98514.28
2023-10-03T14:19:10.493Z,98514.22
2023-10-03T14:22:16.098Z,98512.59
2023-10-03T14:25:22.530Z,98513.16
2023-10-03T14:28:28.105Z,98422.56
2023-10-03T14:31:34.012Z,98510.84
2023-10-03T14:34:39.807Z,98503.66
2023-10-03T14:37:45.275Z,98507.78
2023-10-03T14:40:50.808Z,98503.44
2023-10-03T14:43:56.464Z,98502.00
2023-10-03T14:47:02.005Z,98503.25
2023-10-03T14:50:08.121Z,98501.81
2023-10-03T14:53:14.224Z,98486.00
2023-10-03T14:56:25.545Z,98498.81
2023-10-03T14:59:29.040Z,98495.09
2023-10-03T15:02:34.947Z,98495.66
2023-10-03T15:05:41.398Z,98376.91
2023-10-03T15:08:49.970Z,98485.44
2023-10-03T15:11:55.624Z,98485.19
2023-10-03T15:15:03.915Z,98489.28
2023-10-03T15:18:10.166Z,98486.28
2023-10-03T15:21:19.184Z,98486.69
2023-10-03T15:24:25.440Z,98468.38
2023-10-03T15:27:32.575Z,98449.75
2023-10-03T15:30:39.125Z,98480.69
2023-10-03T15:33:46.402Z,98488.78
2023-10-03T15:36:55.139Z,98480.06
2023-10-03T15:40:00.778Z,98480.34
2023-10-03T15:43:07.919Z,98480.81
2023-10-03T15:45:55.103Z,98480.44
2023-10-03T15:48:44.462Z,98484.44
2023-10-03T15:51:32.046Z,98472.91
2023-10-03T15:54:38.728Z,98479.72
2023-10-03T15:57:46.211Z,98480.09
2023-10-03T16:00:32.254Z,98476.28
2023-10-03T16:03:37.780Z,98474.66
2023-10-03T16:06:26.842Z,98477.19
2023-10-03T16:09:16.356Z,98479.72
2023-10-03T16:12:03.057Z,98489.34
2023-10-03T16:14:48.515Z,98487.69
2023-10-03T16:17:35.181Z,98476.59
2023-10-03T16:20:41.378Z,98487.28
2023-10-03T16:23:27.895Z,98475.88
2023-10-03T16:26:34.436Z,98485.47
2023-10-03T16:29:42.016Z,98477.56
2023-10-03T16:32:48.190Z,98480.19
2023-10-03T16:35:54.417Z,98479.28
2023-10-03T16:39:00.330Z,98471.97
2023-10-03T16:42:07.106Z,98449.72
2023-10-03T16:45:13.775Z,98470.25
2023-10-03T16:48:22.803Z,98461.63
2023-10-03T16:51:10.037Z,98457.28
2023-10-03T16:54:15.972Z,98458.34
2023-10-03T16:57:22.138Z,98453.06
2023-10-03T17:00:28.518Z,98446.50
2023-10-03T17:03:34.989Z,98456.09
2023-10-03T17:06:41.415Z,98460.06
2023-10-03T17:09:47.546Z,98334.84
2023-10-03T17:12:53.993Z,98436.59
2023-10-03T17:15:56.252Z,98456.56
2023-10-03T17:19:03.380Z,98461.25
2023-10-03T17:22:09.838Z,98452.50
2023-10-03T17:25:16.177Z,98460.19
2023-10-03T17:28:22.809Z,98452.50
2023-10-03T17:31:28.685Z,98434.53
2023-10-03T17:34:34.471Z,98452.63
2023-10-03T17:37:40.412Z,98451.28
2023-10-03T17:40:48.818Z,98451.28
2023-10-03T17:43:56.454Z,98451.69
2023-10-03T17:47:02.261Z,98456.38
2023-10-03T17:50:09.034Z,98447.84
2023-10-03T17:53:14.312Z,98453.97
2023-10-03T17:56:22.010Z,98446.19
2023-10-03T17:59:27.342Z,98449.00
2023-10-03T18:02:34.068Z,98443.19
2023-10-03T18:05:41.988Z,98438.19
2023-10-03T18:08:28.506Z,98437.47
2023-10-03T18:11:15.365Z,98427.50
2023-10-03T18:14:01.726Z,98401.50
2023-10-03T18:16:47.484Z,98421.47
2023-10-03T18:19:53.460Z,98423.22
2023-10-03T18:23:01.058Z,98422.91
2023-10-03T18:26:08.349Z,98410.19
2023-10-03T18:29:13.748Z,98417.63
2023-10-03T18:32:21.767Z,98400.81
2023-10-03T18:35:31.321Z,98393.38
2023-10-03T18:38:37.048Z,98405.31
2023-10-03T18:41:44.095Z,98404.16
2023-10-03T18:44:50.225Z,98421.25
2023-10-03T18:47:56.552Z,98403.25
2023-10-03T18:51:02.488Z,98386.06
2023-10-03T18:54:09.480Z,98403.97
2023-10-03T18:57:16.321Z,98405.56
2023-10-03T19:00:24.023Z,98403.16
2023-10-03T19:03:30.580Z,98393.28
2023-10-03T19:06:36.299Z,98387.56
2023-10-03T19:09:26.549Z,98388.94
2023-10-03T19:12:33.205Z,98395.88
2023-10-03T19:15:39.168Z,98387.00
2023-10-03T19:18:44.738Z,98391.50
2023-10-03T19:21:50.412Z,98379.88
2023-10-03T19:24:56.564Z,98386.06
2023-10-03T19:28:02.539Z,98376.00
2023-10-03T19:31:08.466Z,98377.22
2023-10-03T19:34:14.248Z,98372.13
2023-10-03T19:37:19.884Z,98377.97
2023-10-03T19:40:26.063Z,98376.28
2023-10-03T19:43:32.239Z,98373.13
2023-10-03T19:46:40.184Z,98378.94
2023-10-03T19:49:45.955Z,98380.66
2023-10-03T19:52:52.795Z,98370.44
2023-10-03T19:55:59.417Z,98371.56
2023-10-03T19:59:05.249Z,98331.09
2023-10-03T20:02:11.132Z,98362.41
2023-10-03T20:05:16.913Z,98366.56
2023-10-03T20:08:23.691Z,98367.63
2023-10-03T20:11:30.450Z,98361.69
2023-10-03T20:14:36.180Z,98352.31
2023-10-03T20:17:42.194Z,98356.94
2023-10-03T20:20:48.061Z,98356.81
2023-10-03T20:23:54.795Z,98356.09
2023-10-03T20:27:00.418Z,98359.97
2023-10-03T20:30:07.627Z,98355.13
2023-10-03T20:33:16.516Z,98349.53
2023-10-03T20:36:23.587Z,98353.66
2023-10-03T20:39:32.084Z,98352.19
2023-10-03T20:42:37.739Z,98350.13
2023-10-03T20:45:43.869Z,98347.81
2023-10-03T20:48:50.545Z,98343.72
2023-10-03T20:51:57.196Z,98336.53
2023-10-03T20:55:02.706Z,98337.84
2023-10-03T20:58:07.974Z,98317.69
2023-10-03T21:01:14.373Z,98339.69
2023-10-03T21:04:23.034Z,98337.38
2023-10-03T21:07:29.508Z,98331.56
2023-10-03T21:10:35.694Z,98325.69
2023-10-03T21:13:42.318Z,98310.16
2023-10-03T21:16:49.276Z,98320.69
2023-10-03T21:19:58.596Z,98260.69
2023-10-03T21:23:05.280Z,98305.53
2023-10-03T21:26:14.168Z,98303.09
2023-10-03T21:29:00.672Z,98303.69
2023-10-03T21:31:50.351Z,98303.69
2023-10-03T21:34:39.697Z,98306.47
2023-10-03T21:37:26.612Z,98297.50
2023-10-03T21:40:34.457Z,98305.88
2023-10-03T21:43:39.972Z,98310.47
2023-10-03T21:46:45.933Z,98301.59
2023-10-03T21:49:51.865Z,98292.38
2023-10-03T21:53:00.379Z,98289.56
2023-10-03T21:56:07.042Z,98293.59
2023-10-03T21:59:13.641Z,98295.03
2023-10-03T22:02:20.356Z,98288.25
2023-10-03T22:05:26.523Z,98282.91
2023-10-03T22:08:32.205Z,98256.28
2023-10-03T22:11:41.171Z,98290.47
2023-10-03T22:14:46.901Z,98297.50
2023-10-03T22:17:55.667Z,98300.69
2023-10-03T22:21:01.463Z,98293.63
2023-10-03T22:24:10.312Z,98296.81
2023-10-03T22:27:16.676Z,98296.81
2023-10-03T22:30:25.573Z,98297.03
2023-10-03T22:33:32.460Z,98302.75
2023-10-03T22:36:38.188Z,98281.16
2023-10-03T22:39:43.967Z,98279.81
2023-10-03T22:42:49.706Z,98302.91
2023-10-03T22:45:55.682Z,98309.19
2023-10-03T22:49:03.903Z,98297.56
2023-10-03T22:52:10.988Z,98308.94
2023-10-03T22:55:16.537Z,98290.63
2023-10-03T22:58:25.430Z,98300.94
2023-10-03T23:01:32.946Z,98298.28
2023-10-03T23:04:38.545Z,98298.28
2023-10-03T23:07:43.980Z,98303.88
2023-10-03T23:10:52.643Z,98295.50
2023-10-03T23:14:00.171Z,98292.56
2023-10-03T23:17:09.065Z,98287.22
2023-10-03T23:20:17.714Z,98286.63
2023-10-03T23:23:24.224Z,98287.72
2023-10-03T23:26:32.924Z,98290.75
2023-10-03T23:29:39.162Z,98283.97
2023-10-03T23:32:45.190Z,98292.47
2023-10-03T23:35:50.667Z,98275.97
2023-10-03T23:38:58.418Z,98287.34
2023-10-03T23:42:04.017Z,98274.88
2023-10-03T23:45:10.782Z,98282.00
2023-10-03T23:48:19.704Z,98268.19
2023-10-03T23:51:28.834Z,98266.97
2023-10-03T23:54:36.522Z,98216.47
2023-10-03T23:57:41.997Z,98258.84
